LFRD/DNR METAR and TAF weather

Enter ICAO airport designator
Station Type Date Time Source
LFRD METAR 2021/05/10 01:30 UTC NOAA

LFRD 100130Z AUTO 20011KT 9999 FEW014 SCT180 11/09 Q0998 TEMPO SHRA BKN009


Station Type Date Time Source
LFRD Decoded METAR 2021/05/10 01:30 UTC NOAA

Dinard, France (LFRD) 48-35N 002-04W 60M
May 09, 2021 - 09:30 PM EDT / 2021.05.10 0130 UTC
Wind: from the SSW (200 degrees) at 13 MPH (11 KT):0
Visibility: greater than 7 mile(s):0
Sky conditions: partly cloudy
Temperature: 51 F (11 C)
Dew Point: 48 F (9 C)
Relative Humidity: 87%
Pressure (altimeter): 29.47 in. Hg (0998 hPa)
ob: LFRD 100130Z AUTO 20011KT 9999 FEW014 SCT180 11/09 Q0998 TEMPO SHRA BKN009
cycle: 1

Station Type Date Time Source
LFRD TAF 2021/05/09 18:21 UTC NOAA

TAF LFRD 091700Z 0918/1018 22010KT 9999 BKN045 PROB40
TEMPO 1005/1010 4000 SHRA BKN020TCU
TEMPO 1010/1015 21015G33KT 4000 SHRA BKN030CB

Example: see airport list